sensor_id;sensor_type;location;lat;lon;timestamp;temperature;humidity
29713;DHT22;16623;53.632;10.016;2022-11-15T00:00:26;6.80;99.90
29713;DHT22;16623;53.632;10.016;2022-11-15T00:02:52;6.70;99.90
29713;DHT22;16623;53.632;10.016;2022-11-15T00:05:18;6.70;99.90
29713;DHT22;16623;53.632;10.016;2022-11-15T00:07:44;6.70;99.90
29713;DHT22;16623;53.632;10.016;2022-11-15T00:10:09;6.70;99.90
29713;DHT22;16623;53.632;10.016;2022-11-15T00:12:35;6.60;99.90
29713;DHT22;16623;53.632;10.016;2022-11-15T00:15:00;6.60;99.90
29713;DHT22;16623;53.632;10.016;2022-11-15T00:17:26;6.60;99.90
29713;DHT22;16623;53.632;10.016;2022-11-15T00:19:52;6.60;99.90
29713;DHT22;16623;53.632;10.016;2022-11-15T00:22:17;6.60;99.90
29713;DHT22;16623;53.632;10.016;2022-11-15T00:24:43;6.60;99.90
29713;DHT22;16623;53.632;10.016;2022-11-15T00:27:08;6.60;99.90
29713;DHT22;16623;53.632;10.016;2022-11-15T00:29:34;6.60;99.90
29713;DHT22;16623;53.632;10.016;2022-11-15T00:31:59;6.60;99.90
29713;DHT22;16623;53.632;10.016;2022-11-15T00:34:25;6.60;99.90
29713;DHT22;16623;53.632;10.016;2022-11-15T00:36:51;6.60;99.90
29713;DHT22;16623;53.632;10.016;2022-11-15T00:39:16;6.50;99.90
29713;DHT22;16623;53.632;10.016;2022-11-15T00:41:42;6.60;99.90
29713;DHT22;16623;53.632;10.016;2022-11-15T00:44:07;6.50;99.90
29713;DHT22;16623;53.632;10.016;2022-11-15T00:46:33;6.60;99.90
29713;DHT22;16623;53.632;10.016;2022-11-15T00:48:58;6.60;99.90
29713;DHT22;16623;53.632;10.016;2022-11-15T00:51:24;6.50;99.90
29713;DHT22;16623;53.632;10.016;2022-11-15T00:53:49;6.40;99.90
29713;DHT22;16623;53.632;10.016;2022-11-15T00:56:15;6.40;99.90
29713;DHT22;16623;53.632;10.016;2022-11-15T00:58:40;6.40;99.90
29713;DHT22;16623;53.632;10.016;2022-11-15T01:01:12;6.40;99.90
29713;DHT22;16623;53.632;10.016;2022-11-15T01:03:39;6.50;99.90
29713;DHT22;16623;53.632;10.016;2022-11-15T01:06:06;6.50;99.90
29713;DHT22;16623;53.632;10.016;2022-11-15T01:08:32;6.50;99.90
29713;DHT22;16623;53.632;10.016;2022-11-15T01:11:06;6.50;99.90
29713;DHT22;16623;53.632;10.016;2022-11-15T01:13:33;6.60;99.90
29713;DHT22;16623;53.632;10.016;2022-11-15T01:16:06;6.60;99.90
29713;DHT22;16623;53.632;10.016;2022-11-15T01:18:31;6.60;99.90
29713;DHT22;16623;53.632;10.016;2022-11-15T01:20:57;6.50;99.90
29713;DHT22;16623;53.632;10.016;2022-11-15T01:23:22;6.60;99.90
29713;DHT22;16623;53.632;10.016;2022-11-15T01:25:48;6.60;99.90
29713;DHT22;16623;53.632;10.016;2022-11-15T01:28:13;6.60;99.90
29713;DHT22;16623;53.632;10.016;2022-11-15T01:30:39;6.50;99.90
29713;DHT22;16623;53.632;10.016;2022-11-15T01:33:04;6.50;99.90
29713;DHT22;16623;53.632;10.016;2022-11-15T01:35:30;6.50;99.90
29713;DHT22;16623;53.632;10.016;2022-11-15T01:37:55;6.50;99.90
29713;DHT22;16623;53.632;10.016;2022-11-15T01:40:21;6.50;99.90
29713;DHT22;16623;53.632;10.016;2022-11-15T01:42:49;6.50;99.90
29713;DHT22;16623;53.632;10.016;2022-11-15T01:45:15;6.50;99.90
29713;DHT22;16623;53.632;10.016;2022-11-15T01:47:45;6.50;99.90
29713;DHT22;16623;53.632;10.016;2022-11-15T01:50:17;6.50;99.90
29713;DHT22;16623;53.632;10.016;2022-11-15T01:52:44;6.50;99.90
29713;DHT22;16623;53.632;10.016;2022-11-15T01:55:20;6.40;99.90
29713;DHT22;16623;53.632;10.016;2022-11-15T01:57:48;6.40;99.90
29713;DHT22;16623;53.632;10.016;2022-11-15T02:00:15;6.40;99.90
29713;DHT22;16623;53.632;10.016;2022-11-15T02:02:41;6.30;99.90
29713;DHT22;16623;53.632;10.016;2022-11-15T02:05:07;6.40;99.90
29713;DHT22;16623;53.632;10.016;2022-11-15T02:07:34;6.40;99.90
29713;DHT22;16623;53.632;10.016;2022-11-15T02:10:09;6.40;99.90
29713;DHT22;16623;53.632;10.016;2022-11-15T02:12:35;6.40;99.90
29713;DHT22;16623;53.632;10.016;2022-11-15T02:15:02;6.40;99.90
29713;DHT22;16623;53.632;10.016;2022-11-15T02:18:09;6.30;99.90
29713;DHT22;16623;53.632;10.016;2022-11-15T02:20:44;6.30;99.90
29713;DHT22;16623;53.632;10.016;2022-11-15T02:32:10;6.30;99.90
29713;DHT22;16623;53.632;10.016;2022-11-15T02:34:42;6.30;99.90
29713;DHT22;16623;53.632;10.016;2022-11-15T02:37:39;6.20;99.90
29713;DHT22;16623;53.632;10.016;2022-11-15T02:42:38;6.20;99.90
29713;DHT22;16623;53.632;10.016;2022-11-15T02:45:30;6.20;99.90
29713;DHT22;16623;53.632;10.016;2022-11-15T02:47:59;6.20;99.90
29713;DHT22;16623;53.632;10.016;2022-11-15T02:50:29;6.30;99.90
29713;DHT22;16623;53.632;10.016;2022-11-15T02:52:55;6.20;99.90
29713;DHT22;16623;53.632;10.016;2022-11-15T02:55:32;6.20;99.90
29713;DHT22;16623;53.632;10.016;2022-11-15T03:00:34;6.20;99.90
29713;DHT22;16623;53.632;10.016;2022-11-15T03:03:18;6.30;99.90
29713;DHT22;16623;53.632;10.016;2022-11-15T03:06:12;6.30;99.90
29713;DHT22;16623;53.632;10.016;2022-11-15T03:09:02;6.30;99.90
29713;DHT22;16623;53.632;10.016;2022-11-15T03:11:32;6.30;99.90
29713;DHT22;16623;53.632;10.016;2022-11-15T03:14:06;6.30;99.90
29713;DHT22;16623;53.632;10.016;2022-11-15T03:16:38;6.20;99.90
29713;DHT22;16623;53.632;10.016;2022-11-15T03:19:12;6.20;99.90
29713;DHT22;16623;53.632;10.016;2022-11-15T03:21:40;6.20;99.90
29713;DHT22;16623;53.632;10.016;2022-11-15T03:24:07;6.20;99.90
29713;DHT22;16623;53.632;10.016;2022-11-15T03:26:35;6.20;99.90
29713;DHT22;16623;53.632;10.016;2022-11-15T03:29:21;6.10;99.90
29713;DHT22;16623;53.632;10.016;2022-11-15T03:31:52;6.20;99.90
29713;DHT22;16623;53.632;10.016;2022-11-15T03:34:28;6.20;99.90
29713;DHT22;16623;53.632;10.016;2022-11-15T03:36:55;6.20;99.90
29713;DHT22;16623;53.632;10.016;2022-11-15T03:39:21;6.20;99.90
29713;DHT22;16623;53.632;10.016;2022-11-15T03:45:09;6.20;99.90
29713;DHT22;16623;53.632;10.016;2022-11-15T03:47:43;6.20;99.90
29713;DHT22;16623;53.632;10.016;2022-11-15T03:50:16;6.20;99.90
29713;DHT22;16623;53.632;10.016;2022-11-15T03:52:46;6.10;99.90
29713;DHT22;16623;53.632;10.016;2022-11-15T03:55:15;6.10;99.90
29713;DHT22;16623;53.632;10.016;2022-11-15T03:57:42;6.10;99.90
29713;DHT22;16623;53.632;10.016;2022-11-15T04:00:08;6.10;99.90
29713;DHT22;16623;53.632;10.016;2022-11-15T04:02:34;6.10;99.90
29713;DHT22;16623;53.632;10.016;2022-11-15T04:04:59;6.00;99.90
29713;DHT22;16623;53.632;10.016;2022-11-15T04:07:25;6.00;99.90
29713;DHT22;16623;53.632;10.016;2022-11-15T04:09:50;6.00;99.90
29713;DHT22;16623;53.632;10.016;2022-11-15T04:12:32;6.00;99.90
29713;DHT22;16623;53.632;10.016;2022-11-15T04:15:08;6.00;99.90
29713;DHT22;16623;53.632;10.016;2022-11-15T04:17:37;5.90;99.90
29713;DHT22;16623;53.632;10.016;2022-11-15T04:20:05;5.90;99.90
29713;DHT22;16623;53.632;10.016;2022-11-15T04:22:52;5.90;99.90
29713;DHT22;16623;53.632;10.016;2022-11-15T04:25:36;5.80;99.90
29713;DHT22;16623;53.632;10.016;2022-11-15T04:28:03;5.80;99.90
29713;DHT22;16623;53.632;10.016;2022-11-15T04:30:28;5.70;99.90
29713;DHT22;16623;53.632;10.016;2022-11-15T04:32:53;5.70;99.90
29713;DHT22;16623;53.632;10.016;2022-11-15T04:35:19;5.70;99.90
29713;DHT22;16623;53.632;10.016;2022-11-15T04:37:45;5.60;99.90
29713;DHT22;16623;53.632;10.016;2022-11-15T04:40:10;5.60;99.90
29713;DHT22;16623;53.632;10.016;2022-11-15T04:42:36;5.60;99.90
29713;DHT22;16623;53.632;10.016;2022-11-15T04:45:01;5.70;99.90
29713;DHT22;16623;53.632;10.016;2022-11-15T04:47:27;5.70;99.90
29713;DHT22;16623;53.632;10.016;2022-11-15T04:49:54;5.70;99.90
29713;DHT22;16623;53.632;10.016;2022-11-15T04:52:20;5.70;99.90
29713;DHT22;16623;53.632;10.016;2022-11-15T04:54:46;5.70;99.90
29713;DHT22;16623;53.632;10.016;2022-11-15T04:57:11;5.70;99.90
29713;DHT22;16623;53.632;10.016;2022-11-15T04:59:37;5.70;99.90
29713;DHT22;16623;53.632;10.016;2022-11-15T05:02:02;5.60;99.90
29713;DHT22;16623;53.632;10.016;2022-11-15T05:04:28;5.70;99.90
29713;DHT22;16623;53.632;10.016;2022-11-15T05:06:53;5.70;99.90
29713;DHT22;16623;53.632;10.016;2022-11-15T05:09:19;5.70;99.90
29713;DHT22;16623;53.632;10.016;2022-11-15T05:11:45;5.70;99.90
29713;DHT22;16623;53.632;10.016;2022-11-15T05:14:12;5.70;99.90
29713;DHT22;16623;53.632;10.016;2022-11-15T05:16:39;5.80;99.90
29713;DHT22;16623;53.632;10.016;2022-11-15T05:19:07;5.90;99.90
29713;DHT22;16623;53.632;10.016;2022-11-15T05:21:34;5.90;99.90
29713;DHT22;16623;53.632;10.016;2022-11-15T05:24:00;6.00;99.90
29713;DHT22;16623;53.632;10.016;2022-11-15T05:26:26;6.10;99.90
29713;DHT22;16623;53.632;10.016;2022-11-15T05:28:56;6.20;99.90
29713;DHT22;16623;53.632;10.016;2022-11-15T05:31:22;6.20;99.90
29713;DHT22;16623;53.632;10.016;2022-11-15T05:33:49;6.20;99.90
29713;DHT22;16623;53.632;10.016;2022-11-15T05:36:28;6.20;99.90
29713;DHT22;16623;53.632;10.016;2022-11-15T05:38:54;6.20;99.90
29713;DHT22;16623;53.632;10.016;2022-11-15T05:41:25;6.30;99.90
29713;DHT22;16623;53.632;10.016;2022-11-15T05:43:52;6.30;99.90
29713;DHT22;16623;53.632;10.016;2022-11-15T05:46:19;6.30;99.90
29713;DHT22;16623;53.632;10.016;2022-11-15T05:48:49;6.40;99.90
29713;DHT22;16623;53.632;10.016;2022-11-15T05:51:17;6.40;99.90
29713;DHT22;16623;53.632;10.016;2022-11-15T05:53:44;6.40;99.90
29713;DHT22;16623;53.632;10.016;2022-11-15T05:56:10;6.30;99.90
29713;DHT22;16623;53.632;10.016;2022-11-15T05:58:37;6.50;99.90
29713;DHT22;16623;53.632;10.016;2022-11-15T06:01:03;6.50;99.90
29713;DHT22;16623;53.632;10.016;2022-11-15T06:03:28;6.50;99.90
29713;DHT22;16623;53.632;10.016;2022-11-15T06:05:54;6.50;99.90
29713;DHT22;16623;53.632;10.016;2022-11-15T06:08:19;6.60;99.90
29713;DHT22;16623;53.632;10.016;2022-11-15T06:10:45;6.60;99.90
29713;DHT22;16623;53.632;10.016;2022-11-15T06:13:10;6.60;99.90
29713;DHT22;16623;53.632;10.016;2022-11-15T06:15:36;6.60;99.90
29713;DHT22;16623;53.632;10.016;2022-11-15T06:18:01;6.70;99.90
29713;DHT22;16623;53.632;10.016;2022-11-15T06:20:29;6.70;99.90
29713;DHT22;16623;53.632;10.016;2022-11-15T06:23:02;6.80;99.90
29713;DHT22;16623;53.632;10.016;2022-11-15T06:25:37;6.90;99.90
29713;DHT22;16623;53.632;10.016;2022-11-15T06:28:02;6.90;99.90
29713;DHT22;16623;53.632;10.016;2022-11-15T06:30:28;7.00;99.90
29713;DHT22;16623;53.632;10.016;2022-11-15T06:33:04;7.00;99.90
29713;DHT22;16623;53.632;10.016;2022-11-15T06:35:33;7.10;99.90
29713;DHT22;16623;53.632;10.016;2022-11-15T06:38:07;7.00;99.90
29713;DHT22;16623;53.632;10.016;2022-11-15T06:40:37;7.10;99.90
29713;DHT22;16623;53.632;10.016;2022-11-15T06:43:04;7.20;99.90
29713;DHT22;16623;53.632;10.016;2022-11-15T06:45:30;7.10;99.90
29713;DHT22;16623;53.632;10.016;2022-11-15T06:47:56;7.10;99.90
29713;DHT22;16623;53.632;10.016;2022-11-15T06:50:21;7.10;99.90
29713;DHT22;16623;53.632;10.016;2022-11-15T06:52:47;7.20;99.90
29713;DHT22;16623;53.632;10.016;2022-11-15T06:55:13;7.20;99.90
29713;DHT22;16623;53.632;10.016;2022-11-15T06:57:52;7.30;99.90
29713;DHT22;16623;53.632;10.016;2022-11-15T07:00:19;7.20;99.90
29713;DHT22;16623;53.632;10.016;2022-11-15T07:02:45;7.30;99.90
29713;DHT22;16623;53.632;10.016;2022-11-15T07:05:12;7.30;99.90
29713;DHT22;16623;53.632;10.016;2022-11-15T07:07:38;7.30;99.90
29713;DHT22;16623;53.632;10.016;2022-11-15T07:10:04;7.30;99.90
29713;DHT22;16623;53.632;10.016;2022-11-15T07:12:30;7.30;99.90
29713;DHT22;16623;53.632;10.016;2022-11-15T07:14:55;7.30;99.90
29713;DHT22;16623;53.632;10.016;2022-11-15T07:17:21;7.40;99.90
29713;DHT22;16623;53.632;10.016;2022-11-15T07:19:46;7.40;99.90
29713;DHT22;16623;53.632;10.016;2022-11-15T07:22:12;7.30;99.90
29713;DHT22;16623;53.632;10.016;2022-11-15T07:24:37;7.30;99.90
29713;DHT22;16623;53.632;10.016;2022-11-15T07:27:03;7.40;99.90
29713;DHT22;16623;53.632;10.016;2022-11-15T07:29:28;7.40;99.90
29713;DHT22;16623;53.632;10.016;2022-11-15T07:31:54;7.50;99.90
29713;DHT22;16623;53.632;10.016;2022-11-15T07:34:20;7.50;99.90
29713;DHT22;16623;53.632;10.016;2022-11-15T07:36:45;7.60;99.90
29713;DHT22;16623;53.632;10.016;2022-11-15T07:39:11;7.60;99.90
29713;DHT22;16623;53.632;10.016;2022-11-15T07:41:37;7.60;99.90
29713;DHT22;16623;53.632;10.016;2022-11-15T07:44:04;7.70;99.90
29713;DHT22;16623;53.632;10.016;2022-11-15T07:46:30;7.80;99.90
29713;DHT22;16623;53.632;10.016;2022-11-15T07:48:56;7.80;99.90
29713;DHT22;16623;53.632;10.016;2022-11-15T07:51:21;7.80;99.90
29713;DHT22;16623;53.632;10.016;2022-11-15T07:53:47;7.80;99.90
29713;DHT22;16623;53.632;10.016;2022-11-15T07:56:13;7.80;99.90
29713;DHT22;16623;53.632;10.016;2022-11-15T07:58:38;7.80;99.90
29713;DHT22;16623;53.632;10.016;2022-11-15T08:01:05;7.80;99.90
29713;DHT22;16623;53.632;10.016;2022-11-15T08:03:32;7.80;99.90
29713;DHT22;16623;53.632;10.016;2022-11-15T08:05:58;7.70;99.90
29713;DHT22;16623;53.632;10.016;2022-11-15T08:08:23;7.60;99.90
29713;DHT22;16623;53.632;10.016;2022-11-15T08:10:49;7.60;99.90
29713;DHT22;16623;53.632;10.016;2022-11-15T08:13:15;7.70;99.90
29713;DHT22;16623;53.632;10.016;2022-11-15T08:15:41;7.70;99.90
29713;DHT22;16623;53.632;10.016;2022-11-15T08:18:13;7.60;99.90
29713;DHT22;16623;53.632;10.016;2022-11-15T08:20:40;7.60;99.90
29713;DHT22;16623;53.632;10.016;2022-11-15T08:23:07;7.70;99.90
29713;DHT22;16623;53.632;10.016;2022-11-15T08:25:39;7.70;99.90
29713;DHT22;16623;53.632;10.016;2022-11-15T08:28:06;7.70;99.90
29713;DHT22;16623;53.632;10.016;2022-11-15T08:30:42;7.70;99.90
29713;DHT22;16623;53.632;10.016;2022-11-15T08:33:12;7.70;99.90
29713;DHT22;16623;53.632;10.016;2022-11-15T08:35:38;7.60;99.90
29713;DHT22;16623;53.632;10.016;2022-11-15T08:38:04;7.70;99.90
29713;DHT22;16623;53.632;10.016;2022-11-15T08:40:29;7.70;99.90
29713;DHT22;16623;53.632;10.016;2022-11-15T08:42:55;7.70;99.90
29713;DHT22;16623;53.632;10.016;2022-11-15T08:45:20;7.80;99.90
29713;DHT22;16623;53.632;10.016;2022-11-15T08:47:46;7.80;99.90
29713;DHT22;16623;53.632;10.016;2022-11-15T08:50:12;7.80;99.90
29713;DHT22;16623;53.632;10.016;2022-11-15T08:52:37;7.90;99.90
29713;DHT22;16623;53.632;10.016;2022-11-15T08:55:03;7.80;99.90
29713;DHT22;16623;53.632;10.016;2022-11-15T08:57:29;7.90;99.90
29713;DHT22;16623;53.632;10.016;2022-11-15T08:59:58;8.00;99.90
29713;DHT22;16623;53.632;10.016;2022-11-15T09:02:24;8.00;99.90
29713;DHT22;16623;53.632;10.016;2022-11-15T09:04:49;8.10;99.90
29713;DHT22;16623;53.632;10.016;2022-11-15T09:07:16;8.20;99.90
29713;DHT22;16623;53.632;10.016;2022-11-15T09:09:41;8.30;99.90
29713;DHT22;16623;53.632;10.016;2022-11-15T09:12:07;8.30;99.90
29713;DHT22;16623;53.632;10.016;2022-11-15T09:14:34;8.30;99.90
29713;DHT22;16623;53.632;10.016;2022-11-15T09:17:00;8.40;99.90
29713;DHT22;16623;53.632;10.016;2022-11-15T09:19:26;8.30;99.90
29713;DHT22;16623;53.632;10.016;2022-11-15T09:21:51;8.40;99.90
29713;DHT22;16623;53.632;10.016;2022-11-15T09:24:17;8.30;99.90
29713;DHT22;16623;53.632;10.016;2022-11-15T09:26:43;8.30;99.90
29713;DHT22;16623;53.632;10.016;2022-11-15T09:29:09;8.30;99.90
29713;DHT22;16623;53.632;10.016;2022-11-15T09:31:35;8.40;99.90
29713;DHT22;16623;53.632;10.016;2022-11-15T09:34:00;8.90;99.90
29713;DHT22;16623;53.632;10.016;2022-11-15T09:36:26;8.50;99.90
29713;DHT22;16623;53.632;10.016;2022-11-15T09:38:51;8.50;99.90
29713;DHT22;16623;53.632;10.016;2022-11-15T09:41:33;8.60;99.90
29713;DHT22;16623;53.632;10.016;2022-11-15T09:44:22;8.60;99.90
29713;DHT22;16623;53.632;10.016;2022-11-15T09:49:22;8.80;99.90
29713;DHT22;16623;53.632;10.016;2022-11-15T09:51:51;8.90;99.90
29713;DHT22;16623;53.632;10.016;2022-11-15T09:54:35;8.90;99.90
29713;DHT22;16623;53.632;10.016;2022-11-15T09:57:14;8.90;99.90
29713;DHT22;16623;53.632;10.016;2022-11-15T10:02:41;9.00;99.90
29713;DHT22;16623;53.632;10.016;2022-11-15T10:05:14;9.00;99.90
29713;DHT22;16623;53.632;10.016;2022-11-15T10:07:52;9.10;99.90
29713;DHT22;16623;53.632;10.016;2022-11-15T10:10:41;9.20;99.90
29713;DHT22;16623;53.632;10.016;2022-11-15T10:13:22;9.30;99.90
29713;DHT22;16623;53.632;10.016;2022-11-15T10:15:48;9.30;99.90
29713;DHT22;16623;53.632;10.016;2022-11-15T10:18:50;9.40;99.90
29713;DHT22;16623;53.632;10.016;2022-11-15T10:21:21;9.50;99.90
29713;DHT22;16623;53.632;10.016;2022-11-15T10:23:50;9.50;99.90
29713;DHT22;16623;53.632;10.016;2022-11-15T10:26:18;9.60;99.90
29713;DHT22;16623;53.632;10.016;2022-11-15T10:28:43;9.60;99.90
29713;DHT22;16623;53.632;10.016;2022-11-15T10:31:26;9.70;99.90
29713;DHT22;16623;53.632;10.016;2022-11-15T10:34:20;9.80;99.90
29713;DHT22;16623;53.632;10.016;2022-11-15T10:36:56;9.80;99.90
29713;DHT22;16623;53.632;10.016;2022-11-15T10:39:23;9.80;99.90
29713;DHT22;16623;53.632;10.016;2022-11-15T10:41:49;9.90;99.90
29713;DHT22;16623;53.632;10.016;2022-11-15T10:44:19;9.80;99.90
29713;DHT22;16623;53.632;10.016;2022-11-15T10:49:24;9.90;99.90
29713;DHT22;16623;53.632;10.016;2022-11-15T10:54:34;9.90;99.90
29713;DHT22;16623;53.632;10.016;2022-11-15T10:57:10;10.00;99.90
29713;DHT22;16623;53.632;10.016;2022-11-15T10:59:37;10.10;99.90
29713;DHT22;16623;53.632;10.016;2022-11-15T11:04:52;10.10;99.90
29713;DHT22;16623;53.632;10.016;2022-11-15T11:07:36;10.10;99.90
29713;DHT22;16623;53.632;10.016;2022-11-15T11:10:21;10.20;99.90
29713;DHT22;16623;53.632;10.016;2022-11-15T11:12:49;10.20;99.90
29713;DHT22;16623;53.632;10.016;2022-11-15T11:15:16;10.30;99.90
29713;DHT22;16623;53.632;10.016;2022-11-15T11:17:56;10.30;99.90
29713;DHT22;16623;53.632;10.016;2022-11-15T11:20:38;10.30;99.90
29713;DHT22;16623;53.632;10.016;2022-11-15T11:29:00;10.50;99.90
29713;DHT22;16623;53.632;10.016;2022-11-15T11:31:37;10.60;99.90
29713;DHT22;16623;53.632;10.016;2022-11-15T11:37:01;10.60;99.90
29713;DHT22;16623;53.632;10.016;2022-11-15T11:42:44;10.70;99.90
29713;DHT22;16623;53.632;10.016;2022-11-15T11:48:04;10.80;99.90
29713;DHT22;16623;53.632;10.016;2022-11-15T11:50:38;10.80;99.90
29713;DHT22;16623;53.632;10.016;2022-11-15T11:53:25;10.80;99.90
29713;DHT22;16623;53.632;10.016;2022-11-15T11:55:54;10.80;99.90
29713;DHT22;16623;53.632;10.016;2022-11-15T11:58:35;10.80;99.90
29713;DHT22;16623;53.632;10.016;2022-11-15T12:03:39;10.90;99.90
29713;DHT22;16623;53.632;10.016;2022-11-15T12:09:06;10.90;99.90
29713;DHT22;16623;53.632;10.016;2022-11-15T12:11:50;11.00;99.90
29713;DHT22;16623;53.632;10.016;2022-11-15T12:14:45;11.00;99.90
29713;DHT22;16623;53.632;10.016;2022-11-15T12:17:12;11.10;99.90
29713;DHT22;16623;53.632;10.016;2022-11-15T12:19:39;11.10;99.90
29713;DHT22;16623;53.632;10.016;2022-11-15T12:22:20;11.10;99.90
29713;DHT22;16623;53.632;10.016;2022-11-15T12:29:54;11.20;99.90
29713;DHT22;16623;53.632;10.016;2022-11-15T12:32:28;11.20;99.90
29713;DHT22;16623;53.632;10.016;2022-11-15T12:34:54;11.30;99.90
29713;DHT22;16623;53.632;10.016;2022-11-15T12:37:33;11.40;99.90
29713;DHT22;16623;53.632;10.016;2022-11-15T12:40:27;11.40;99.90
29713;DHT22;16623;53.632;10.016;2022-11-15T12:45:41;11.50;99.90
29713;DHT22;16623;53.632;10.016;2022-11-15T12:58:52;11.60;99.90
29713;DHT22;16623;53.632;10.016;2022-11-15T13:06:49;11.50;99.90
29713;DHT22;16623;53.632;10.016;2022-11-15T13:12:48;11.50;99.90
29713;DHT22;16623;53.632;10.016;2022-11-15T13:17:46;11.60;99.90
29713;DHT22;16623;53.632;10.016;2022-11-15T13:25:50;11.60;99.90
29713;DHT22;16623;53.632;10.016;2022-11-15T13:28:27;11.70;99.90
29713;DHT22;16623;53.632;10.016;2022-11-15T13:30:57;11.70;99.90
29713;DHT22;16623;53.632;10.016;2022-11-15T13:33:28;11.60;99.90
29713;DHT22;16623;53.632;10.016;2022-11-15T13:35:58;11.60;99.90
29713;DHT22;16623;53.632;10.016;2022-11-15T13:40:50;11.60;99.90
29713;DHT22;16623;53.632;10.016;2022-11-15T13:43:31;11.70;99.90
29713;DHT22;16623;53.632;10.016;2022-11-15T13:46:23;11.70;99.90
29713;DHT22;16623;53.632;10.016;2022-11-15T13:48:58;11.70;99.90
29713;DHT22;16623;53.632;10.016;2022-11-15T13:54:43;11.80;99.90
29713;DHT22;16623;53.632;10.016;2022-11-15T14:00:23;11.70;99.90
29713;DHT22;16623;53.632;10.016;2022-11-15T14:02:34;11.80;99.90
29713;DHT22;16623;53.632;10.016;2022-11-15T14:05:21;11.70;99.90
29713;DHT22;16623;53.632;10.016;2022-11-15T14:07:58;11.80;99.90
29713;DHT22;16623;53.632;10.016;2022-11-15T14:10:35;11.70;99.90
29713;DHT22;16623;53.632;10.016;2022-11-15T14:13:09;11.80;99.90
29713;DHT22;16623;53.632;10.016;2022-11-15T14:15:38;11.80;99.90
29713;DHT22;16623;53.632;10.016;2022-11-15T14:18:05;11.90;99.90
29713;DHT22;16623;53.632;10.016;2022-11-15T14:20:36;11.80;99.90
29713;DHT22;16623;53.632;10.016;2022-11-15T14:23:05;11.90;99.90
29713;DHT22;16623;53.632;10.016;2022-11-15T14:25:52;11.80;99.90
29713;DHT22;16623;53.632;10.016;2022-11-15T14:30:56;11.80;99.90
29713;DHT22;16623;53.632;10.016;2022-11-15T14:33:25;11.80;99.90
29713;DHT22;16623;53.632;10.016;2022-11-15T14:35:53;11.70;99.90
29713;DHT22;16623;53.632;10.016;2022-11-15T14:38:21;11.60;99.90
29713;DHT22;16623;53.632;10.016;2022-11-15T14:40:47;11.60;99.90
29713;DHT22;16623;53.632;10.016;2022-11-15T14:43:13;11.60;99.90
29713;DHT22;16623;53.632;10.016;2022-11-15T14:45:40;11.60;99.90
29713;DHT22;16623;53.632;10.016;2022-11-15T14:48:06;11.60;99.90
29713;DHT22;16623;53.632;10.016;2022-11-15T14:50:32;11.50;99.90
29713;DHT22;16623;53.632;10.016;2022-11-15T14:52:58;11.50;99.90
29713;DHT22;16623;53.632;10.016;2022-11-15T14:55:29;11.40;99.90
29713;DHT22;16623;53.632;10.016;2022-11-15T14:57:57;11.40;99.90
29713;DHT22;16623;53.632;10.016;2022-11-15T15:00:23;11.30;99.90
29713;DHT22;16623;53.632;10.016;2022-11-15T15:02:52;11.30;99.90
29713;DHT22;16623;53.632;10.016;2022-11-15T15:05:29;11.30;99.90
29713;DHT22;16623;53.632;10.016;2022-11-15T15:07:55;11.20;99.90
29713;DHT22;16623;53.632;10.016;2022-11-15T15:10:21;11.20;99.90
29713;DHT22;16623;53.632;10.016;2022-11-15T15:12:48;11.10;99.90
29713;DHT22;16623;53.632;10.016;2022-11-15T15:15:24;11.20;99.90
29713;DHT22;16623;53.632;10.016;2022-11-15T15:17:50;11.00;99.90
29713;DHT22;16623;53.632;10.016;2022-11-15T15:20:16;11.00;99.90
29713;DHT22;16623;53.632;10.016;2022-11-15T15:22:42;11.00;99.90
29713;DHT22;16623;53.632;10.016;2022-11-15T15:25:32;10.90;99.90
29713;DHT22;16623;53.632;10.016;2022-11-15T15:27:58;10.90;99.90
29713;DHT22;16623;53.632;10.016;2022-11-15T15:30:26;10.80;99.90
29713;DHT22;16623;53.632;10.016;2022-11-15T15:32:52;10.80;99.90
29713;DHT22;16623;53.632;10.016;2022-11-15T15:35:19;10.80;99.90
29713;DHT22;16623;53.632;10.016;2022-11-15T15:37:46;10.80;99.90
29713;DHT22;16623;53.632;10.016;2022-11-15T15:40:23;10.80;99.90
29713;DHT22;16623;53.632;10.016;2022-11-15T15:42:50;10.80;99.90
29713;DHT22;16623;53.632;10.016;2022-11-15T15:45:16;10.80;99.90
29713;DHT22;16623;53.632;10.016;2022-11-15T15:47:43;10.70;99.90
29713;DHT22;16623;53.632;10.016;2022-11-15T15:52:45;10.70;99.90
29713;DHT22;16623;53.632;10.016;2022-11-15T15:55:11;10.60;99.90
29713;DHT22;16623;53.632;10.016;2022-11-15T15:57:49;10.60;99.90
29713;DHT22;16623;53.632;10.016;2022-11-15T16:00:16;10.50;99.90
29713;DHT22;16623;53.632;10.016;2022-11-15T16:02:42;10.40;99.90
29713;DHT22;16623;53.632;10.016;2022-11-15T16:05:08;10.40;99.90
29713;DHT22;16623;53.632;10.016;2022-11-15T16:07:34;10.40;99.90
29713;DHT22;16623;53.632;10.016;2022-11-15T16:10:00;10.30;99.90
29713;DHT22;16623;53.632;10.016;2022-11-15T16:12:34;10.40;99.90
29713;DHT22;16623;53.632;10.016;2022-11-15T16:15:00;10.30;99.90
29713;DHT22;16623;53.632;10.016;2022-11-15T16:17:35;10.20;99.90
29713;DHT22;16623;53.632;10.016;2022-11-15T16:20:02;10.20;99.90
29713;DHT22;16623;53.632;10.016;2022-11-15T16:22:28;10.20;99.90
29713;DHT22;16623;53.632;10.016;2022-11-15T16:24:55;10.20;99.90
29713;DHT22;16623;53.632;10.016;2022-11-15T16:27:21;10.30;99.90
29713;DHT22;16623;53.632;10.016;2022-11-15T16:29:48;10.30;99.90
29713;DHT22;16623;53.632;10.016;2022-11-15T16:32:14;10.30;99.90
29713;DHT22;16623;53.632;10.016;2022-11-15T16:34:40;10.30;99.90
29713;DHT22;16623;53.632;10.016;2022-11-15T16:37:21;10.20;99.90
29713;DHT22;16623;53.632;10.016;2022-11-15T16:39:49;10.30;99.90
29713;DHT22;16623;53.632;10.016;2022-11-15T16:42:15;10.30;99.90
29713;DHT22;16623;53.632;10.016;2022-11-15T16:44:40;10.30;99.90
29713;DHT22;16623;53.632;10.016;2022-11-15T16:47:15;10.30;99.90
29713;DHT22;16623;53.632;10.016;2022-11-15T16:49:42;10.30;99.90
29713;DHT22;16623;53.632;10.016;2022-11-15T16:52:08;10.30;99.90
29713;DHT22;16623;53.632;10.016;2022-11-15T16:54:36;10.30;99.90
29713;DHT22;16623;53.632;10.016;2022-11-15T16:57:02;10.30;99.90
29713;DHT22;16623;53.632;10.016;2022-11-15T16:59:28;10.30;99.90
29713;DHT22;16623;53.632;10.016;2022-11-15T17:01:55;10.40;99.90
29713;DHT22;16623;53.632;10.016;2022-11-15T17:04:20;10.30;99.90
29713;DHT22;16623;53.632;10.016;2022-11-15T17:06:47;10.40;99.90
29713;DHT22;16623;53.632;10.016;2022-11-15T17:09:18;10.40;99.90
29713;DHT22;16623;53.632;10.016;2022-11-15T17:11:44;10.50;99.90
29713;DHT22;16623;53.632;10.016;2022-11-15T17:14:10;10.50;99.90
29713;DHT22;16623;53.632;10.016;2022-11-15T17:16:37;10.50;99.90
29713;DHT22;16623;53.632;10.016;2022-11-15T17:19:17;10.40;99.90